Time;durP1;ratioP1;P1;durP2;ratioP2;P2;SDS_P1;SDS_P2;PMS_P1;PMS_P2;Temp;Humidity;BMP_temperature;BMP_pressure;BME280_temperature;BME280_humidity;BME280_pressure;Samples;Min_cycle;Max_cycle;Signal;HPM_P1;HPM_P2
2023/03/20 00:00:22;;;;;;;26.05;17.17;;;;;;;5.87;100.00;98146.09;5052185;28;20501;-69
2023/03/20 00:02:47;;;;;;;26.80;17.55;;;;;;;6.01;100.00;98148.88;5052704;28;20121;-69
2023/03/20 00:05:22;;;;;;;26.35;17.30;;;;;;;6.12;100.00;98152.63;5053641;28;20116;-69
2023/03/20 00:07:48;;;;;;;26.17;17.33;;;;;;;5.86;100.00;98144.47;5054080;28;20454;-69
2023/03/20 00:10:15;;;;;;;25.40;17.02;;;;;;;5.99;100.00;98120.38;5052393;28;20045;-70
2023/03/20 00:12:40;;;;;;;27.52;18.17;;;;;;;6.04;100.00;98171.47;5052517;28;20130;-69
2023/03/20 00:15:24;;;;;;;26.20;18.23;;;;;;;5.66;100.00;98127.56;5051881;28;20044;-70
2023/03/20 00:17:50;;;;;;;29.27;19.13;;;;;;;6.03;100.00;98174.88;5053899;28;20083;-69
2023/03/20 00:20:16;;;;;;;29.65;19.73;;;;;;;5.44;100.00;98158.63;5053245;28;20033;-69
2023/03/20 00:22:42;;;;;;;31.70;20.38;;;;;;;5.81;100.00;98191.66;5053555;28;20063;-69
2023/03/20 00:25:13;;;;;;;30.42;19.38;;;;;;;5.51;100.00;98205.38;5053496;28;20476;-69
2023/03/20 00:27:39;;;;;;;30.23;19.27;;;;;;;5.19;100.00;98169.59;5052003;28;20462;-69
2023/03/20 00:30:28;;;;;;;29.35;18.52;;;;;;;5.57;100.00;98192.56;5053265;28;20116;-69
2023/03/20 00:32:56;;;;;;;27.65;17.63;;;;;;;5.29;100.00;98097.88;5052123;28;20028;-70
2023/03/20 00:35:28;;;;;;;26.88;17.15;;;;;;;4.84;100.00;98136.47;5053462;28;20098;-74
2023/03/20 00:37:55;;;;;;;27.80;17.38;;;;;;;5.31;100.00;98128.03;5053075;28;20087;-70
2023/03/20 00:40:22;;;;;;;27.75;18.42;;;;;;;5.59;100.00;98173.19;5053739;28;20040;-69
2023/03/20 00:42:57;;;;;;;23.88;16.83;;;;;;;5.50;100.00;98128.19;5051886;28;20029;-70
2023/03/20 00:45:23;;;;;;;25.73;17.17;;;;;;;5.39;100.00;98148.72;5051441;28;20084;-72
2023/03/20 00:47:50;;;;;;;28.67;17.83;;;;;;;5.63;100.00;98120.09;5052873;28;20418;-69
2023/03/20 00:50:24;;;;;;;26.13;17.73;;;;;;;5.52;100.00;98200.31;5052970;28;20044;-69
2023/03/20 00:52:51;;;;;;;26.98;17.27;;;;;;;5.21;100.00;98155.25;5051689;28;20032;-69
2023/03/20 00:55:19;;;;;;;26.25;17.52;;;;;;;5.35;100.00;98177.41;5052729;28;20036;-69
2023/03/20 00:57:48;;;;;;;26.40;17.70;;;;;;;5.43;100.00;98165.38;5052606;28;20569;-70
2023/03/20 01:00:42;;;;;;;26.40;17.27;;;;;;;5.58;100.00;98219.41;5052510;28;20800;-69
2023/03/20 01:03:20;;;;;;;24.90;17.27;;;;;;;5.39;100.00;98188.22;5051753;28;20045;-69
2023/03/20 01:05:46;;;;;;;26.63;17.58;;;;;;;5.08;100.00;98183.44;5052520;28;20440;-70
2023/03/20 01:08:16;;;;;;;25.25;16.98;;;;;;;5.60;100.00;98144.59;5052661;28;20163;-69
2023/03/20 01:10:44;;;;;;;24.63;16.00;;;;;;;5.95;100.00;98134.00;5052619;28;20025;-70
2023/03/20 01:13:19;;;;;;;26.15;16.85;;;;;;;5.92;100.00;98137.44;5052620;28;20539;-70
2023/03/20 01:15:44;;;;;;;26.40;17.25;;;;;;;5.91;100.00;98138.34;5052393;28;20925;-69
2023/03/20 01:18:15;;;;;;;25.15;17.35;;;;;;;5.83;100.00;98183.19;5051273;28;20029;-69
2023/03/20 01:20:41;;;;;;;28.20;18.15;;;;;;;5.63;100.00;98194.88;5051772;28;20029;-69
2023/03/20 01:23:06;;;;;;;27.17;17.55;;;;;;;5.64;100.00;98178.88;5051201;28;20082;-70
2023/03/20 01:25:32;;;;;;;25.83;17.55;;;;;;;5.70;100.00;98129.06;5050930;28;20033;-69
2023/03/20 01:28:12;;;;;;;24.70;16.80;;;;;;;5.98;100.00;98185.13;5051353;28;20175;-70
2023/03/20 01:30:37;;;;;;;28.45;17.38;;;;;;;5.12;100.00;98170.69;5052528;28;20059;-71
2023/03/20 01:33:12;;;;;;;28.25;18.30;;;;;;;5.61;100.00;98226.84;5051973;28;20111;-69
2023/03/20 01:35:38;;;;;;;26.48;17.30;;;;;;;5.33;100.00;98203.56;5050416;28;20028;-70
2023/03/20 01:38:10;;;;;;;28.02;17.52;;;;;;;5.44;100.00;98266.97;5051863;28;20433;-69
2023/03/20 01:41:04;;;;;;;26.65;17.33;;;;;;;5.61;100.00;98279.78;5052118;28;20025;-69
2023/03/20 01:43:29;;;;;;;29.15;18.67;;;;;;;5.10;100.00;98320.19;5051638;28;20037;-69
2023/03/20 01:46:05;;;;;;;26.13;17.55;;;;;;;5.26;100.00;98354.06;5051999;28;20024;-69
2023/03/20 01:48:48;;;;;;;26.23;17.63;;;;;;;5.39;100.00;98372.13;5051866;28;20032;-69
2023/03/20 01:51:14;;;;;;;26.42;17.63;;;;;;;5.21;100.00;98333.22;5052038;28;20052;-69
2023/03/20 01:53:39;;;;;;;27.05;17.45;;;;;;;5.38;100.00;98376.34;5050134;28;20037;-69
2023/03/20 01:56:05;;;;;;;30.35;18.05;;;;;;;5.07;100.00;98404.19;5051702;28;20031;-69
2023/03/20 01:58:36;;;;;;;30.40;18.40;;;;;;;5.12;100.00;98477.91;5051215;28;20029;-69
2023/03/20 02:01:03;;;;;;;29.92;18.17;;;;;;;5.17;100.00;98460.13;5051881;28;20029;-69
2023/03/20 02:03:29;;;;;;;28.52;18.13;;;;;;;5.19;100.00;98488.59;5050064;28;20597;-72
2023/03/20 02:05:56;;;;;;;28.35;18.13;;;;;;;5.02;100.00;98480.75;5051683;28;20473;-70
2023/03/20 02:08:26;;;;;;;29.75;17.77;;;;;;;4.46;100.00;98499.97;5049705;28;20570;-69
2023/03/20 02:10:53;;;;;;;35.00;19.30;;;;;;;4.83;100.00;98558.47;5051576;28;20414;-69
2023/03/20 02:13:19;;;;;;;27.63;17.85;;;;;;;5.05;100.00;98557.00;5050259;28;20111;-70
2023/03/20 02:16:06;;;;;;;30.30;18.83;;;;;;;4.66;100.00;98512.84;5049859;28;20044;-70
2023/03/20 02:18:33;;;;;;;29.38;18.48;;;;;;;4.68;100.00;98580.72;5051493;28;20025;-70
2023/03/20 02:21:17;;;;;;;29.10;18.92;;;;;;;4.79;100.00;98641.69;5050012;28;20040;-69
2023/03/20 02:24:02;;;;;;;31.92;19.90;;;;;;;4.74;100.00;98570.50;5051304;28;20057;-69
2023/03/20 02:26:39;;;;;;;29.00;18.92;;;;;;;5.05;100.00;98642.63;5051600;28;20060;-69
2023/03/20 02:29:32;;;;;;;26.50;18.67;;;;;;;5.05;100.00;98631.75;5049347;28;20029;-69
2023/03/20 02:32:25;;;;;;;29.10;18.42;;;;;;;4.83;100.00;98671.75;5051304;28;20021;-70
2023/03/20 02:35:09;;;;;;;28.92;17.58;;;;;;;4.92;100.00;98653.06;5051096;28;20063;-69
2023/03/20 02:37:59;;;;;;;29.10;18.77;;;;;;;4.83;100.00;98674.25;5050562;28;20475;-69
2023/03/20 02:40:30;;;;;;;32.28;20.08;;;;;;;4.60;100.00;98713.47;5049831;28;20466;-69
2023/03/20 02:43:00;;;;;;;31.67;18.95;;;;;;;4.56;100.00;98702.66;5050221;28;20141;-69
2023/03/20 02:45:30;;;;;;;32.67;19.27;;;;;;;4.62;100.00;98788.06;5049716;28;21041;-70
2023/03/20 02:48:10;;;;;;;30.42;19.35;;;;;;;4.78;100.00;98801.94;5050699;28;20033;-69
2023/03/20 02:50:47;;;;;;;27.63;18.48;;;;;;;4.55;100.00;98861.19;5050989;28;20083;-70
2023/03/20 02:53:41;;;;;;;32.03;18.50;;;;;;;4.60;100.00;98882.88;5051166;28;20075;-69
2023/03/20 02:56:11;;;;;;;29.58;18.48;;;;;;;4.56;100.00;98911.47;5049176;28;20102;-71
2023/03/20 02:58:56;;;;;;;30.77;18.27;;;;;;;4.35;100.00;98967.28;5050798;28;20075;-69
2023/03/20 03:01:37;;;;;;;31.77;19.45;;;;;;;4.31;100.00;99028.56;5049464;28;20040;-69
2023/03/20 03:04:17;;;;;;;30.08;18.23;;;;;;;4.36;100.00;99150.03;5050892;28;20079;-69
2023/03/20 03:06:48;;;;;;;31.73;18.55;;;;;;;4.45;100.00;99134.81;5050245;28;20040;-69
2023/03/20 03:09:25;;;;;;;28.92;18.58;;;;;;;4.49;100.00;99155.69;5050591;28;20029;-69
2023/03/20 03:12:05;;;;;;;29.50;17.88;;;;;;;4.75;100.00;99221.53;5050353;28;20044;-70
2023/03/20 03:14:45;;;;;;;30.38;18.92;;;;;;;4.79;100.00;99231.53;5050507;28;20064;-69
2023/03/20 03:17:13;;;;;;;32.30;18.65;;;;;;;4.55;100.00;99184.13;5050743;28;20041;-69
2023/03/20 03:19:43;;;;;;;28.08;18.48;;;;;;;4.32;100.00;99206.28;5050324;28;20037;-69
2023/03/20 03:22:08;;;;;;;29.98;19.55;;;;;;;4.11;100.00;99209.13;5050511;28;20082;-68
2023/03/20 03:24:37;;;;;;;31.63;19.65;;;;;;;4.16;100.00;99250.94;5049105;28;20033;-68
2023/03/20 03:27:12;;;;;;;32.40;19.48;;;;;;;3.97;100.00;99252.06;5049326;28;20060;-68
2023/03/20 03:29:39;;;;;;;35.97;21.08;;;;;;;4.29;100.00;99295.22;5051146;28;20128;-69
2023/03/20 03:32:06;;;;;;;33.60;20.98;;;;;;;4.17;100.00;99287.00;5054982;28;20068;-69
2023/03/20 03:34:33;;;;;;;34.45;20.75;;;;;;;4.17;100.00;99292.03;5053297;28;20450;-68
2023/03/20 03:37:10;;;;;;;36.30;21.23;;;;;;;4.37;100.00;99342.91;5054347;28;20028;-68
2023/03/20 03:39:45;;;;;;;35.13;20.65;;;;;;;4.58;100.00;99347.63;5053010;28;20025;-71
2023/03/20 03:42:26;;;;;;;26.85;17.15;;;;;;;3.86;100.00;99250.53;5054644;28;20029;-69
2023/03/20 03:45:03;;;;;;;19.08;12.82;;;;;;;4.47;100.00;99336.03;5054370;28;20453;-69
2023/03/20 03:47:47;;;;;;;31.90;18.23;;;;;;;4.25;100.00;99338.88;5054113;28;20036;-69
2023/03/20 03:50:47;;;;;;;28.33;17.88;;;;;;;4.01;100.00;99350.91;5053777;28;20108;-69
2023/03/20 03:53:17;;;;;;;27.27;16.70;;;;;;;3.84;100.00;99376.25;5049799;28;20033;-69
2023/03/20 03:55:48;;;;;;;24.38;15.13;;;;;;;3.55;100.00;99390.75;5054562;28;20033;-69
2023/03/20 03:58:52;;;;;;;27.40;16.92;;;;;;;3.59;100.00;99404.13;5052322;28;20103;-69
2023/03/20 04:01:20;;;;;;;22.73;15.27;;;;;;;3.20;100.00;99362.63;5042320;28;20072;-69
2023/03/20 04:03:49;;;;;;;24.20;15.20;;;;;;;2.67;100.00;99336.25;5053329;28;20495;-68
2023/03/20 04:06:16;;;;;;;22.10;15.57;;;;;;;3.36;100.00;99444.53;5054078;28;20392;-68
2023/03/20 04:08:42;;;;;;;26.85;18.65;;;;;;;3.00;100.00;99389.56;5053278;28;20029;-69
2023/03/20 04:11:19;;;;;;;27.02;18.13;;;;;;;2.67;100.00;99385.63;5051516;28;20033;-73
2023/03/20 04:13:47;;;;;;;38.33;23.30;;;;;;;2.83;100.00;99487.56;5052034;28;20120;-68
2023/03/20 04:16:13;;;;;;;38.97;24.88;;;;;;;2.78;100.00;99509.31;5052158;28;20052;-69
2023/03/20 04:18:39;;;;;;;36.05;24.42;;;;;;;2.97;100.00;99517.59;5052426;28;20067;-72
2023/03/20 04:21:05;;;;;;;32.20;20.67;;;;;;;3.09;100.00;99487.41;5052776;28;20036;-68
2023/03/20 04:23:32;;;;;;;37.85;21.23;;;;;;;2.56;100.00;99503.56;5053621;28;20041;-69
2023/03/20 04:25:58;;;;;;;34.00;24.45;;;;;;;3.12;100.00;99566.06;5053653;28;20033;-69
2023/03/20 04:28:23;;;;;;;41.70;25.40;;;;;;;2.72;100.00;99557.00;5052109;28;20147;-69
2023/03/20 04:30:57;;;;;;;50.70;27.90;;;;;;;2.81;100.00;99624.75;5053238;28;20033;-68
2023/03/20 04:33:24;;;;;;;52.05;30.25;;;;;;;1.97;100.00;99609.78;5053203;28;20074;-70
2023/03/20 04:35:50;;;;;;;42.33;25.83;;;;;;;2.29;100.00;99758.56;5051842;28;20040;-68
2023/03/20 04:38:16;;;;;;;38.85;22.85;;;;;;;3.07;100.00;99772.78;5050284;28;20033;-69
2023/03/20 04:40:43;;;;;;;34.20;20.33;;;;;;;2.60;100.00;99863.09;5052125;28;20033;-69
2023/03/20 04:43:08;;;;;;;31.90;19.52;;;;;;;2.33;100.00;99765.25;5051974;28;20406;-67
2023/03/20 04:45:34;;;;;;;42.70;17.70;;;;;;;2.75;100.00;99817.97;5053468;28;20025;-68
2023/03/20 04:47:59;;;;;;;37.97;17.25;;;;;;;2.41;100.00;99851.38;5053126;28;20746;-69
2023/03/20 04:50:25;;;;;;;38.90;18.75;;;;;;;2.47;100.00;99848.88;5051500;28;20437;-73
2023/03/20 04:52:50;;;;;;;55.92;21.25;;;;;;;2.32;100.00;99871.38;5052186;28;20120;-70
2023/03/20 04:55:16;;;;;;;63.10;23.92;;;;;;;2.59;100.00;99886.53;5053547;28;20064;-71
2023/03/20 04:57:41;;;;;;;40.35;21.77;;;;;;;2.83;100.00;99943.47;5050213;28;20116;-71
2023/03/20 05:00:07;;;;;;;31.77;18.92;;;;;;;2.35;100.00;99909.03;5052138;28;20053;-70
2023/03/20 05:02:33;;;;;;;28.42;18.13;;;;;;;2.53;100.00;99981.84;5052790;28;20021;-70
2023/03/20 05:04:58;;;;;;;27.77;17.45;;;;;;;3.03;100.00;99987.03;5050901;28;20475;-69
2023/03/20 05:07:24;;;;;;;32.45;19.42;;;;;;;3.12;100.00;99989.53;5052254;28;20031;-70
2023/03/20 05:09:49;;;;;;;82.68;22.00;;;;;;;2.64;100.00;99960.13;5051077;28;20029;-70
2023/03/20 05:12:15;;;;;;;38.65;21.30;;;;;;;2.85;100.00;99967.75;5052339;28;20035;-71
2023/03/20 05:14:40;;;;;;;38.30;21.83;;;;;;;2.98;100.00;99979.47;5051987;28;20041;-70
2023/03/20 05:17:06;;;;;;;35.92;19.88;;;;;;;2.56;100.00;99984.34;5051097;28;20475;-70
2023/03/20 05:19:31;;;;;;;42.10;22.15;;;;;;;2.75;100.00;100043.81;5051824;28;20063;-69
2023/03/20 05:21:56;;;;;;;47.25;25.90;;;;;;;2.37;100.00;100005.16;5051244;28;20025;-69
2023/03/20 05:24:22;;;;;;;48.55;25.45;;;;;;;3.03;100.00;100078.22;5052170;28;20098;-70
2023/03/20 05:26:47;;;;;;;42.83;24.45;;;;;;;2.99;100.00;100051.44;5051227;28;20484;-72
2023/03/20 05:29:13;;;;;;;43.28;24.02;;;;;;;3.75;100.00;100094.31;5050125;28;20025;-73
2023/03/20 05:31:39;;;;;;;35.75;21.05;;;;;;;3.53;100.00;100109.38;5052588;28;20108;-71
2023/03/20 05:34:04;;;;;;;34.97;21.00;;;;;;;3.78;100.00;100110.25;5050822;28;20033;-72
2023/03/20 05:36:30;;;;;;;44.38;20.42;;;;;;;3.81;100.00;100120.31;5052362;28;20033;-70
2023/03/20 05:38:56;;;;;;;59.85;18.50;;;;;;;3.67;100.00;100121.94;5051829;28;20507;-71
2023/03/20 05:41:22;;;;;;;50.58;17.20;;;;;;;3.85;100.00;100124.50;5052374;28;20454;-70
2023/03/20 05:43:48;;;;;;;55.17;17.45;;;;;;;4.12;100.00;100151.38;5051534;28;20037;-70
2023/03/20 05:46:13;;;;;;;53.20;17.42;;;;;;;3.64;100.00;100141.22;5051836;28;20029;-70
2023/03/20 05:48:39;;;;;;;47.42;16.95;;;;;;;4.33;100.00;100154.72;5051970;28;20629;-71
2023/03/20 05:51:04;;;;;;;36.83;15.98;;;;;;;4.07;100.00;100130.38;5043585;28;20033;-71
2023/03/20 05:53:30;;;;;;;57.25;17.00;;;;;;;3.28;100.00;100102.59;5030167;28;20124;-71
2023/03/20 05:55:55;;;;;;;39.08;20.00;;;;;;;4.07;100.00;100181.53;5032115;28;20403;-70
2023/03/20 05:58:21;;;;;;;45.08;18.40;;;;;;;4.01;100.00;100121.16;5031490;28;20083;-70
2023/03/20 06:00:47;;;;;;;24.73;16.73;;;;;;;4.33;100.00;100167.31;5032261;28;20427;-71
2023/03/20 06:03:12;;;;;;;31.45;18.92;;;;;;;4.90;100.00;100173.94;5030930;28;20038;-71
2023/03/20 06:05:37;;;;;;;31.88;20.23;;;;;;;5.14;100.00;100150.38;5030457;28;20041;-70
2023/03/20 06:08:03;;;;;;;31.63;20.88;;;;;;;5.15;100.00;100149.53;5031454;28;20658;-72
2023/03/20 06:10:29;;;;;;;40.25;25.58;;;;;;;5.12;100.00;100058.84;5031514;28;20033;-70
2023/03/20 06:12:56;;;;;;;32.55;23.63;;;;;;;5.58;100.00;100074.53;5030135;28;20780;-70
2023/03/20 06:15:21;;;;;;;32.67;23.92;;;;;;;5.98;100.00;100055.78;5029912;28;20113;-70
2023/03/20 06:17:47;;;;;;;35.53;24.90;;;;;;;6.05;100.00;99999.38;5031100;28;20072;-70
2023/03/20 06:20:13;;;;;;;117.70;56.75;;;;;;;6.65;100.00;100005.47;5031220;28;20650;-70
2023/03/20 06:22:38;;;;;;;34.40;21.65;;;;;;;7.25;100.00;99999.59;5030390;28;20037;-69
2023/03/20 06:25:05;;;;;;;23.30;17.15;;;;;;;6.45;100.00;99904.69;5030916;28;20033;-70
2023/03/20 06:27:31;;;;;;;26.88;19.15;;;;;;;7.18;100.00;99911.22;5031480;28;20060;-70
2023/03/20 06:29:56;;;;;;;26.42;18.15;;;;;;;7.08;100.00;99783.34;5030373;28;20348;-70
2023/03/20 06:32:21;;;;;;;22.33;16.60;;;;;;;7.39;100.00;99739.78;5031397;28;20116;-70
2023/03/20 06:34:47;;;;;;;26.52;18.23;;;;;;;6.88;100.00;99654.81;5029981;28;20041;-72
2023/03/20 06:37:12;;;;;;;22.75;16.00;;;;;;;7.89;100.00;99632.50;5031373;28;20470;-70
2023/03/20 06:39:38;;;;;;;18.63;14.48;;;;;;;7.45;100.00;99542.44;5030980;28;20041;-70
2023/03/20 06:42:03;;;;;;;23.30;15.05;;;;;;;8.45;100.00;99426.84;5029895;28;20132;-70
2023/03/20 06:44:29;;;;;;;33.75;18.85;;;;;;;8.36;100.00;99328.34;5029543;28;20476;-71
2023/03/20 06:46:55;;;;;;;28.92;17.70;;;;;;;8.07;100.00;99274.34;5029737;28;20029;-70
2023/03/20 06:49:20;;;;;;;39.30;21.98;;;;;;;8.21;100.00;99188.69;5031291;28;20091;-70
2023/03/20 06:51:47;;;;;;;28.90;19.50;;;;;;;8.68;100.00;99102.72;5030546;28;20476;-71
2023/03/20 06:54:12;;;;;;;31.70;20.80;;;;;;;8.63;100.00;98982.19;5029260;28;20160;-68
2023/03/20 06:56:38;;;;;;;20.80;16.80;;;;;;;9.72;100.00;98953.38;5030627;28;20115;-70
2023/03/20 06:59:03;;;;;;;19.58;15.30;;;;;;;8.92;100.00;99014.03;5030250;28;20056;-70
2023/03/20 07:01:28;;;;;;;23.35;16.52;;;;;;;8.76;100.00;99008.69;5028511;28;20025;-70
2023/03/20 07:03:54;;;;;;;19.75;15.68;;;;;;;10.32;100.00;98960.13;5031006;28;20049;-71
2023/03/20 07:06:20;;;;;;;19.63;15.07;;;;;;;10.45;100.00;98925.69;5031164;28;20026;-71
2023/03/20 07:08:46;;;;;;;21.08;15.00;;;;;;;9.73;100.00;98931.34;5030376;28;20037;-71
2023/03/20 07:11:11;;;;;;;22.65;15.98;;;;;;;10.27;100.00;98890.94;5029734;28;20029;-70
2023/03/20 07:13:37;;;;;;;24.05;16.67;;;;;;;10.65;100.00;98802.81;5030696;28;20037;-70
2023/03/20 07:16:04;;;;;;;27.63;20.20;;;;;;;9.43;100.00;99024.75;5029632;28;20053;-72
2023/03/20 07:18:29;;;;;;;26.98;17.23;;;;;;;9.85;100.00;98997.66;5030518;28;20030;-72
2023/03/20 07:21:05;;;;;;;21.23;16.55;;;;;;;9.98;100.00;99001.34;5029752;28;20087;-71
2023/03/20 07:23:33;;;;;;;19.90;15.05;;;;;;;9.61;100.00;99002.03;5029643;28;20064;-71
2023/03/20 07:25:58;;;;;;;24.17;17.63;;;;;;;10.85;100.00;98943.34;5030786;28;20032;-71
2023/03/20 07:28:27;;;;;;;28.55;21.05;;;;;;;9.99;100.00;99000.47;5029398;28;20128;-72
2023/03/20 07:30:54;;;;;;;27.35;19.08;;;;;;;11.24;100.00;98941.50;5030948;28;20030;-72
2023/03/20 07:33:19;;;;;;;29.83;18.63;;;;;;;10.41;100.00;98986.00;5030874;28;20036;-72
2023/03/20 07:35:45;;;;;;;29.23;17.63;;;;;;;11.56;100.00;98906.03;5030617;28;20026;-72
2023/03/20 07:38:10;;;;;;;25.98;17.10;;;;;;;10.00;100.00;98948.78;5030941;28;20044;-72
2023/03/20 07:40:36;;;;;;;26.20;17.00;;;;;;;9.96;100.00;98964.22;5035787;28;20036;-72
2023/03/20 07:43:02;;;;;;;27.10;17.55;;;;;;;10.40;100.00;99022.44;5049995;28;20078;-72
2023/03/20 07:45:27;;;;;;;26.25;18.70;;;;;;;11.07;100.00;98941.44;5050795;28;20029;-73
2023/03/20 07:47:53;;;;;;;31.48;19.80;;;;;;;10.81;100.00;98923.22;5051115;28;20029;-72
2023/03/20 07:50:18;;;;;;;32.95;18.05;;;;;;;11.57;100.00;98926.31;5050221;28;20033;-72
2023/03/20 07:52:47;;;;;;;29.75;17.88;;;;;;;12.12;100.00;98864.09;5050369;28;20029;-72
2023/03/20 07:55:14;;;;;;;27.63;16.75;;;;;;;12.93;100.00;98781.47;5050605;28;20033;-72
2023/03/20 07:57:39;;;;;;;29.52;18.23;;;;;;;12.52;100.00;98703.94;5050260;28;20104;-72
2023/03/20 08:00:07;;;;;;;24.83;17.08;;;;;;;9.90;100.00;98896.78;5050417;28;20110;-72
2023/03/20 08:02:33;;;;;;;27.00;16.67;;;;;;;9.73;100.00;98954.19;5049177;28;20064;-72
2023/03/20 08:04:59;;;;;;;27.25;17.17;;;;;;;11.57;100.00;98846.59;5049961;28;20067;-72
2023/03/20 08:07:24;;;;;;;30.67;17.45;;;;;;;11.56;100.00;98843.22;5050432;28;20057;-72
2023/03/20 08:09:51;;;;;;;25.95;18.17;;;;;;;12.02;100.00;98864.66;5048995;28;20051;-72
2023/03/20 08:12:17;;;;;;;24.15;16.98;;;;;;;12.25;100.00;98820.97;5049158;28;20128;-72
2023/03/20 08:14:43;;;;;;;24.00;17.13;;;;;;;12.33;100.00;98728.81;5053841;28;20109;-71
2023/03/20 08:17:09;;;;;;;26.38;16.55;;;;;;;11.69;100.00;98699.16;5054386;28;20403;-71
2023/03/20 08:19:35;;;;;;;28.73;17.00;;;;;;;11.96;100.00;98722.34;5053216;28;20036;-72
2023/03/20 08:22:00;;;;;;;27.23;16.67;;;;;;;12.09;100.00;98730.97;5052647;28;20032;-72
2023/03/20 08:24:26;;;;;;;24.25;15.48;;;;;;;11.22;100.00;98754.22;5052217;28;20025;-72
2023/03/20 08:26:51;;;;;;;24.80;16.75;;;;;;;12.08;100.00;98673.28;5053606;28;20033;-72
2023/03/20 08:29:18;;;;;;;27.50;16.35;;;;;;;12.77;100.00;98558.84;5053629;28;20514;-72
2023/03/20 08:31:44;;;;;;;26.48;17.15;;;;;;;11.86;100.00;98721.19;5052451;28;20672;-73
2023/03/20 08:34:09;;;;;;;24.95;15.93;;;;;;;12.14;100.00;98704.31;5053583;28;20182;-73
2023/03/20 08:36:35;;;;;;;24.67;16.38;;;;;;;12.18;100.00;98682.06;5053448;28;20029;-72
2023/03/20 08:39:00;;;;;;;26.60;16.38;;;;;;;11.77;100.00;98725.03;5053620;28;20518;-73
2023/03/20 08:41:26;;;;;;;25.02;15.80;;;;;;;11.22;100.00;98770.31;5053695;28;20036;-73
2023/03/20 08:43:51;;;;;;;25.80;16.02;;;;;;;11.98;100.00;98669.59;5052465;28;20124;-73
2023/03/20 08:46:17;;;;;;;29.48;17.15;;;;;;;12.48;100.00;98727.97;5053892;28;20037;-73
2023/03/20 08:48:42;;;;;;;25.77;17.10;;;;;;;13.60;100.00;98595.38;5051932;28;20033;-72
2023/03/20 08:51:08;;;;;;;27.55;19.77;;;;;;;12.64;100.00;98601.25;5053422;28;20029;-72
2023/03/20 08:53:34;;;;;;;34.25;21.48;;;;;;;12.67;100.00;98641.88;5053634;28;20040;-72
2023/03/20 08:56:00;;;;;;;29.88;21.58;;;;;;;12.33;100.00;98574.19;5052007;28;20043;-73
2023/03/20 08:58:27;;;;;;;29.83;21.02;;;;;;;12.75;100.00;98540.25;5052952;28;20067;-72
2023/03/20 09:00:53;;;;;;;32.40;21.88;;;;;;;13.74;100.00;98515.31;5053105;28;20487;-73
2023/03/20 09:03:19;;;;;;;32.88;20.67;;;;;;;13.31;100.00;98465.38;5052611;28;20044;-73
2023/03/20 09:05:51;;;;;;;28.90;20.95;;;;;;;13.71;100.00;98423.56;5051629;28;20029;-71
2023/03/20 09:08:16;;;;;;;26.88;18.67;;;;;;;13.69;100.00;98382.81;5051919;28;20033;-72
2023/03/20 09:10:42;;;;;;;23.92;19.20;;;;;;;14.18;100.00;98315.63;5052954;28;20495;-73
2023/03/20 09:13:08;;;;;;;26.63;18.77;;;;;;;12.87;100.00;98419.66;5053207;28;20396;-73
2023/03/20 09:15:34;;;;;;;27.88;19.73;;;;;;;13.87;100.00;98350.13;5051960;28;20032;-73
2023/03/20 09:18:00;;;;;;;27.58;18.75;;;;;;;13.71;100.00;98426.94;5053046;28;20116;-73
2023/03/20 09:20:25;;;;;;;29.40;18.67;;;;;;;13.88;100.00;98406.19;5052054;28;20119;-73
2023/03/20 09:22:51;;;;;;;26.08;19.70;;;;;;;14.25;100.00;98301.50;5052518;28;20483;-73
2023/03/20 09:25:16;;;;;;;25.30;19.17;;;;;;;13.77;100.00;98398.44;5050900;28;20032;-73
2023/03/20 09:27:42;;;;;;;25.73;19.42;;;;;;;14.05;100.00;98397.41;5052751;28;20028;-76
2023/03/20 09:30:09;;;;;;;25.38;18.25;;;;;;;12.17;100.00;98443.50;5052405;28;20112;-74
2023/03/20 09:32:35;;;;;;;25.10;18.02;;;;;;;11.86;100.00;98531.06;5051411;28;20037;-72
2023/03/20 09:35:02;;;;;;;30.55;21.70;;;;;;;13.37;100.00;98510.94;5051991;28;20021;-74
2023/03/20 09:37:27;;;;;;;28.25;20.60;;;;;;;14.63;100.00;98348.25;5051243;28;20047;-73
2023/03/20 09:39:53;;;;;;;25.27;18.67;;;;;;;13.99;100.00;98399.56;5051321;28;20017;-72
2023/03/20 09:42:28;;;;;;;30.23;17.55;;;;;;;13.84;100.00;98374.13;5052535;28;20123;-74
2023/03/20 09:45:20;;;;;;;25.92;18.63;;;;;;;14.31;100.00;98376.06;5052750;28;20025;-73
2023/03/20 09:47:46;;;;;;;26.27;19.55;;;;;;;14.06;100.00;98393.13;5053032;28;20033;-73
2023/03/20 09:50:45;;;;;;;27.70;19.75;;;;;;;14.70;100.00;98350.25;5051436;28;20029;-73
2023/03/20 09:53:15;;;;;;;27.88;20.40;;;;;;;14.54;100.00;98305.41;5052307;28;20460;-73
2023/03/20 09:55:42;;;;;;;28.88;22.45;;;;;;;16.00;100.00;98296.19;5052135;28;20033;-73
2023/03/20 09:58:32;;;;;;;28.95;19.85;;;;;;;15.26;100.00;98353.03;5052329;28;20076;-74
2023/03/20 10:01:01;;;;;;;25.15;19.33;;;;;;;13.77;100.00;98378.03;5051777;28;20053;-72
2023/03/20 10:03:40;;;;;;;29.98;20.65;;;;;;;14.84;100.00;98299.84;5051858;28;20033;-70
2023/03/20 10:06:12;;;;;;;29.33;19.80;;;;;;;14.27;100.00;98317.53;5050772;28;20025;-72
2023/03/20 10:08:38;;;;;;;30.42;20.10;;;;;;;14.25;100.00;98329.59;5051642;28;20491;-71
2023/03/20 10:11:10;;;;;;;26.95;19.50;;;;;;;14.70;100.00;98316.19;5051982;28;20056;-72
2023/03/20 10:13:48;;;;;;;27.65;20.85;;;;;;;15.24;100.00;98332.66;5051253;28;20059;-73
2023/03/20 10:16:30;;;;;;;28.00;20.90;;;;;;;15.12;100.00;98286.66;5051940;28;20029;-73
2023/03/20 10:19:10;;;;;;;29.20;21.23;;;;;;;15.27;100.00;98345.22;5051937;28;20025;-72
2023/03/20 10:21:43;;;;;;;29.17;20.23;;;;;;;13.74;100.00;98293.13;5051607;28;20056;-71
2023/03/20 10:24:34;;;;;;;25.83;19.60;;;;;;;14.86;100.00;98314.16;5051354;28;20554;-73
2023/03/20 10:27:15;;;;;;;25.50;19.73;;;;;;;15.69;100.00;98245.69;5041359;28;20091;-70
2023/03/20 10:30:22;;;;;;;24.92;20.08;;;;;;;16.39;100.00;98287.97;5050237;28;20043;-71
2023/03/20 10:33:12;;;;;;;25.23;19.50;;;;;;;16.00;100.00;98330.34;5038589;28;20044;-73
2023/03/20 10:35:46;;;;;;;42.05;28.60;;;;;;;16.59;100.00;98320.59;5051597;28;20032;-70
2023/03/20 10:38:23;;;;;;;25.42;19.05;;;;;;;16.46;100.00;98337.84;5051970;28;20041;-71
2023/03/20 10:40:49;;;;;;;29.15;19.38;;;;;;;16.59;100.00;98271.03;5051052;28;20036;-71
2023/03/20 10:43:30;;;;;;;28.77;21.35;;;;;;;16.29;100.00;98354.56;5050981;28;20032;-72
2023/03/20 10:46:07;;;;;;;28.15;20.45;;;;;;;15.35;100.00;98307.06;5051482;28;20378;-71
2023/03/20 10:48:46;;;;;;;28.95;20.25;;;;;;;15.57;100.00;98294.34;5051000;28;20037;-67
2023/03/20 10:51:33;;;;;;;42.95;30.80;;;;;;;16.20;100.00;98311.66;5051023;28;20123;-69
2023/03/20 10:54:02;;;;;;;25.65;19.15;;;;;;;15.62;100.00;98375.97;5050278;28;20036;-68
2023/03/20 10:56:41;;;;;;;25.90;18.77;;;;;;;16.49;100.00;98258.13;5049385;28;20036;-69
2023/03/20 10:59:44;;;;;;;24.00;18.27;;;;;;;16.45;100.00;98313.13;5046049;28;20491;-70
2023/03/20 11:02:11;;;;;;;23.92;16.88;;;;;;;16.85;100.00;98398.91;5045772;28;20083;-69
2023/03/20 11:04:37;;;;;;;21.85;16.63;;;;;;;16.56;100.00;98323.38;5050725;28;20029;-72
2023/03/20 11:07:15;;;;;;;21.90;15.00;;;;;;;15.88;100.00;98468.84;5050582;28;20435;-70
2023/03/20 11:09:40;;;;;;;18.52;15.07;;;;;;;16.34;100.00;98380.66;5050237;28;20384;-69
2023/03/20 11:12:18;;;;;;;19.48;14.13;;;;;;;16.52;100.00;98424.63;5049402;28;20040;-68
2023/03/20 11:14:44;;;;;;;18.27;14.55;;;;;;;15.94;100.00;98383.81;5050854;28;20029;-70
2023/03/20 11:17:11;;;;;;;18.65;14.13;;;;;;;16.81;100.00;98377.00;5050449;28;20508;-70
2023/03/20 11:19:39;;;;;;;19.75;13.23;;;;;;;16.88;100.00;98465.41;5050454;28;20511;-70
2023/03/20 11:22:22;;;;;;;15.43;13.70;;;;;;;16.63;100.00;98398.97;5050212;28;20037;-70
2023/03/20 11:24:54;;;;;;;17.95;13.57;;;;;;;16.73;100.00;98365.69;5050215;28;20029;-69
2023/03/20 11:27:29;;;;;;;18.45;14.40;;;;;;;16.50;100.00;98389.78;5050007;28;20033;-70